M I D A S
Marine Information and Data Acquisition System
Tripno 1447 of the Zeeleeuw from 2008-03-28 07:28:51 to 2008-03-28 13:09:42
Back to CruiseResearch ActivitiesStationsMapUnderway DataData graphs

EquipmentUnitsComments
TimeDGPSUTC
LatitudeDGPSDM.mWGS84
LongitudeDGPSDM.mWGS84
SpeedMeteo Stationm/sRelative wind speed
DirectionMeteo StationdegRelative wind direction
TemperatureMeteo Stationdeg CelciusAir temperature
PressureMeteo StationPaAtmospheric pressure
HumidityMeteo Station%Relative humidity
Missing or incorrect values are displayed as -999
Metereological data collected by the RV Zeeleeuw from 2008-03-28 06:49:31 to 2008-03-28 13:15:27
Time Latitude Longitude Speed Direction Temperature Pressure Humidity
2008-03-28 06:50 51°13.666 2°55.955 -999 -999 -999 -999 -999
2008-03-28 06:51 51°13.665 2°55.955 -999 -999 -999 -999 -999
2008-03-28 06:52 51°13.665 2°55.954 -999 -999 -999 -999 -999
2008-03-28 06:53 51°13.665 2°55.954 -999 -999 -999 -999 -999
2008-03-28 06:54 51°13.666 2°55.954 -999 -999 -999 -999 -999
2008-03-28 06:55 51°13.666 2°55.954 -999 -999 -999 -999 -999
2008-03-28 06:56 51°13.665 2°55.953 -999 -999 -999 -999 -999
2008-03-28 06:57 51°13.665 2°55.953 -999 -999 -999 -999 -999
2008-03-28 06:58 51°13.665 2°55.953 -999 -999 -999 -999 -999
2008-03-28 06:59 51°13.665 2°55.953 -999 -999 -999 -999 -999
2008-03-28 07:00 51°13.665 2°55.953 -999 -999 -999 -999 -999
2008-03-28 07:01 51°13.665 2°55.953 -999 -999 -999 -999 -999
2008-03-28 07:02 51°13.665 2°55.953 -999 -999 -999 -999 -999
2008-03-28 07:03 51°13.665 2°55.953 -999 -999 -999 -999 -999
2008-03-28 07:04 51°13.666 2°55.953 -999 -999 -999 -999 -999
2008-03-28 07:05 51°13.666 2°55.953 -999 -999 -999 -999 -999
2008-03-28 07:06 51°13.665 2°55.953 -999 -999 -999 -999 -999
2008-03-28 07:07 51°13.665 2°55.953 -999 -999 -999 -999 -999
2008-03-28 07:08 51°13.665 2°55.953 -999 -999 -999 -999 -999
2008-03-28 07:09 51°13.665 2°55.954 -999 -999 -999 -999 -999
2008-03-28 07:10 51°13.666 2°55.954 -999 -999 -999 -999 -999
2008-03-28 07:11 51°13.666 2°55.953 -999 -999 -999 -999 -999
2008-03-28 07:12 51°13.666 2°55.953 -999 -999 -999 -999 -999
2008-03-28 07:13 51°13.666 2°55.953 -999 -999 -999 -999 -999
2008-03-28 07:14 51°13.666 2°55.953 -999 -999 -999 -999 -999
2008-03-28 07:15 51°13.666 2°55.953 -999 -999 -999 -999 -999
2008-03-28 07:16 51°13.667 2°55.954 -999 -999 -999 -999 -999
2008-03-28 07:17 51°13.667 2°55.954 -999 -999 -999 -999 -999
2008-03-28 07:18 51°13.666 2°55.954 -999 -999 -999 -999 -999
2008-03-28 07:19 51°13.667 2°55.955 -999 -999 -999 -999 -999
2008-03-28 07:20 51°13.667 2°55.956 -999 -999 -999 -999 -999
2008-03-28 07:21 51°13.666 2°55.956 -999 -999 -999 -999 -999
2008-03-28 07:22 51°13.666 2°55.955 -999 -999 -999 -999 -999
2008-03-28 07:23 51°13.665 2°55.954 -999 -999 -999 -999 -999
2008-03-28 07:24 51°13.666 2°55.954 -999 -999 -999 -999 -999
2008-03-28 07:25 51°13.666 2°55.954 -999 -999 -999 -999 -999
2008-03-28 07:26 51°13.666 2°55.953 -999 -999 -999 -999 -999
2008-03-28 07:27 51°13.667 2°55.953 -999 -999 -999 -999 -999
2008-03-28 07:28 51°13.667 2°55.953 -999 -999 -999 -999 -999
2008-03-28 07:29 51°13.667 2°55.953 -999 -999 -999 -999 -999
2008-03-28 07:30 51°13.666 2°55.952 -999 -999 -999 -999 -999
2008-03-28 07:31 51°13.666 2°55.953 -999 -999 -999 -999 -999
2008-03-28 07:32 51°13.665 2°55.953 -999 -999 -999 -999 -999
2008-03-28 07:33 51°13.666 2°55.953 -999 -999 -999 -999 -999
2008-03-28 07:34 51°13.665 2°55.953 -999 -999 -999 -999 -999
2008-03-28 07:35 51°13.666 2°55.953 -999 -999 -999 -999 -999
2008-03-28 07:36 51°13.664 2°55.953 -999 -999 -999 -999 -999
2008-03-28 07:37 51°13.672 2°55.931 -999 -999 -999 -999 -999
2008-03-28 07:38 51°13.687 2°55.857 -999 -999 -999 -999 -999
2008-03-28 07:39 51°13.689 2°55.777 -999 -999 -999 -999 -999
2008-03-28 07:40 51°13.684 2°55.727 -999 -999 -999 -999 -999
2008-03-28 07:41 51°13.709 2°55.714 -999 -999 -999 -999 -999
2008-03-28 07:42 51°13.811 2°55.636 -999 -999 -999 -999 -999
2008-03-28 07:43 51°13.94 2°55.541 0.6 19 -999 -999 -999
2008-03-28 07:44 51°14.071 2°55.445 2.1 39 4 100540 100
2008-03-28 07:45 51°14.213 2°55.326 1.9 256 4.1 100530 100
2008-03-28 07:46 51°14.327 2°55.126 3.8 31 4.1 100530 100
2008-03-28 07:47 51°14.431 2°54.863 8.4 33 4.2 100520 100
2008-03-28 07:48 51°14.46 2°54.521 11.6 238 4.2 100510 100
2008-03-28 07:49 51°14.408 2°54.181 13.1 36 4.2 100500 100
2008-03-28 07:50 51°14.335 2°53.856 13.7 36 4.2 100490 100
2008-03-28 07:51 51°14.26 2°53.528 12.4 35 4.3 100500 100
2008-03-28 07:52 51°14.184 2°53.2 11 38 4.3 100490 100
2008-03-28 07:53 51°14.105 2°52.868 14.2 34 4.3 100490 100
2008-03-28 07:54 51°14.012 2°52.554 14.1 33 4.3 100480 100
2008-03-28 07:55 51°13.908 2°52.259 15 32 4.3 100480 100
2008-03-28 07:56 51°13.826 2°52.101 8.6 316 4.4 100490 100
2008-03-28 07:57 51°13.779 2°52.029 10 36 4.5 100500 100
2008-03-28 07:58 51°13.746 2°51.962 12.3 33 4.5 100490 100
2008-03-28 07:59 51°13.717 2°51.9 10.2 33 4.5 100490 100
2008-03-28 08:00 51°13.687 2°51.84 9.3 35 4.5 100500 100
2008-03-28 08:01 51°13.649 2°51.77 8.6 36 4.5 100490 100
2008-03-28 08:02 51°13.598 2°51.691 8.5 317 4.5 100480 100
2008-03-28 08:03 51°13.54 2°51.605 11.9 35 4.6 100490 100
2008-03-28 08:04 51°13.504 2°51.52 12.5 237 4.6 100490 100
2008-03-28 08:05 51°13.489 2°51.459 8.1 238 4.6 100490 100
2008-03-28 08:06 51°13.483 2°51.414 12.5 240 4.6 100500 100
2008-03-28 08:07 51°13.483 2°51.376 7.6 248 4.7 100500 100
2008-03-28 08:08 51°13.485 2°51.342 7.9 247 4.7 100500 100
2008-03-28 08:09 51°13.487 2°51.31 8.6 247 4.8 100510 100
2008-03-28 08:10 51°13.49 2°51.279 8.5 251 4.8 100510 100
2008-03-28 08:11 51°13.494 2°51.248 8.6 253 4.8 100510 99
2008-03-28 08:12 51°13.488 2°51.195 10.4 234 4.8 100490 99
2008-03-28 08:13 51°13.445 2°51.076 12.8 33 4.8 100480 99
2008-03-28 08:14 51°13.376 2°50.878 12.9 35 4.8 100460 98
2008-03-28 08:15 51°13.292 2°50.649 13 33 4.8 100460 98
2008-03-28 08:16 51°13.205 2°50.413 13.4 38 4.8 100460 97
2008-03-28 08:17 51°13.115 2°50.173 13.8 31 4.8 100460 97
2008-03-28 08:18 51°13.019 2°49.919 13.9 33 4.8 100460 96
2008-03-28 08:19 51°12.931 2°49.657 14.1 38 4.8 100450 96
2008-03-28 08:20 51°12.842 2°49.389 14.3 34 4.8 100460 96
2008-03-28 08:21 51°12.753 2°49.126 11.2 35 4.8 100470 95
2008-03-28 08:22 51°12.667 2°48.862 13.2 35 4.8 100460 95
2008-03-28 08:23 51°12.583 2°48.602 11.2 36 4.8 100470 95
2008-03-28 08:24 51°12.495 2°48.335 14.8 316 4.8 100470 94
2008-03-28 08:25 51°12.408 2°48.077 14.1 35 4.8 100450 94
2008-03-28 08:26 51°12.323 2°47.805 14.2 37 4.9 100460 94
2008-03-28 08:27 51°12.241 2°47.535 10.8 39 4.9 100450 93
2008-03-28 08:28 51°12.166 2°47.261 14.3 38 5 100450 94
2008-03-28 08:29 51°12.089 2°46.979 15.5 34 5 100440 93
2008-03-28 08:30 51°12.015 2°46.704 15 31 5 100440 92
2008-03-28 08:31 51°11.937 2°46.427 13.5 35 5 100430 91
2008-03-28 08:32 51°11.859 2°46.149 11.8 35 5.1 100430 91
2008-03-28 08:33 51°11.787 2°45.868 11.5 234 5.2 100440 90
2008-03-28 08:34 51°11.712 2°45.583 16.6 36 5.2 100440 90
2008-03-28 08:35 51°11.641 2°45.302 12.8 36 5.2 100430 89
2008-03-28 08:36 51°11.57 2°45.021 12 37 5.2 100440 89
2008-03-28 08:37 51°11.5 2°44.741 16.9 31 5.3 100430 88
2008-03-28 08:38 51°11.429 2°44.461 12.6 37 5.3 100420 88
2008-03-28 08:39 51°11.361 2°44.186 12.8 33 5.3 100430 88
2008-03-28 08:40 51°11.289 2°43.903 17 35 5.3 100440 88
2008-03-28 08:41 51°11.231 2°43.616 13.8 33 5.3 100430 88
2008-03-28 08:42 51°11.178 2°43.326 14.5 35 5.4 100440 88
2008-03-28 08:43 51°11.124 2°43.038 12.6 31 5.4 100430 88
2008-03-28 08:44 51°11.073 2°42.753 14.6 34 5.4 100430 88
2008-03-28 08:45 51°11.019 2°42.459 14.1 37 5.4 100430 88
2008-03-28 08:46 51°10.967 2°42.173 11.5 33 5.4 100430 88
2008-03-28 08:47 51°10.915 2°41.884 15.4 36 5.4 100420 88
2008-03-28 08:48 51°10.861 2°41.595 11.2 36 5.4 100420 88
2008-03-28 08:49 51°10.808 2°41.301 13 33 5.4 100420 88
2008-03-28 08:50 51°10.76 2°41.015 11.4 34 5.4 100420 88
2008-03-28 08:51 51°10.725 2°40.866 10.6 316 5.4 100430 88
2008-03-28 08:52 51°10.698 2°40.798 10.2 327 5.3 100440 88
2008-03-28 08:53 51°10.622 2°40.75 12.3 328 5.3 100440 88
2008-03-28 08:54 51°10.508 2°40.625 15.5 323 5.3 100420 89
2008-03-28 08:55 51°10.394 2°40.471 12.5 317 5.3 100420 89
2008-03-28 08:56 51°10.283 2°40.299 14.3 324 5.4 100420 90
2008-03-28 08:57 51°10.203 2°40.162 11.2 326 5.4 100420 90
2008-03-28 08:58 51°10.155 2°40.08 9.7 320 5.4 100440 90
2008-03-28 08:59 51°10.128 2°40.026 9.1 324 5.4 100450 90
2008-03-28 09:00 51°10.114 2°39.977 10.3 35 5.4 100440 90
2008-03-28 09:01 51°10.111 2°39.933 9.9 35 5.4 100440 90
2008-03-28 09:02 51°10.116 2°39.893 8.7 239 5.4 100440 91
2008-03-28 09:03 51°10.126 2°39.856 9.2 254 5.4 100440 91
2008-03-28 09:04 51°10.138 2°39.822 6.9 261 5.4 100470 91
2008-03-28 09:05 51°10.15 2°39.789 12 260 5.4 100450 91
2008-03-28 09:06 51°10.162 2°39.75 6.8 261 5.4 100450 91
2008-03-28 09:07 51°10.211 2°39.685 4.7 36 5.4 100460 91
2008-03-28 09:08 51°10.286 2°39.744 6.3 28 5.4 100440 91
2008-03-28 09:09 51°10.398 2°39.906 8.9 28 5.4 100430 91
2008-03-28 09:10 51°10.515 2°40.098 6.9 22 5.4 100430 90
2008-03-28 09:11 51°10.632 2°40.281 7.6 29 5.4 100430 90
2008-03-28 09:12 51°10.753 2°40.473 7.7 24 5.4 100430 90
2008-03-28 09:13 51°10.869 2°40.662 6.8 24 5.4 100430 90
2008-03-28 09:14 51°10.989 2°40.858 5.6 23 5.4 100430 90
2008-03-28 09:15 51°11.105 2°41.052 7.4 29 5.4 100430 90
2008-03-28 09:16 51°11.221 2°41.248 7.8 23 5.5 100420 90
2008-03-28 09:17 51°11.338 2°41.442 8.6 32 5.5 100420 89
2008-03-28 09:18 51°11.451 2°41.639 8.4 28 5.5 100420 89
2008-03-28 09:19 51°11.566 2°41.833 8.8 26 5.5 100430 89
2008-03-28 09:20 51°11.683 2°42.026 7.6 28 5.5 100420 89
2008-03-28 09:21 51°11.792 2°42.231 7.8 23 5.5 100420 89
2008-03-28 09:22 51°11.899 2°42.437 7.6 21 5.5 100420 89
2008-03-28 09:23 51°12.007 2°42.642 7.2 24 5.5 100420 89
2008-03-28 09:24 51°12.115 2°42.846 7.5 23 5.5 100420 89
2008-03-28 09:25 51°12.22 2°43.047 7.5 18 5.5 100410 89
2008-03-28 09:26 51°12.327 2°43.251 7.8 22 5.5 100420 89
2008-03-28 09:27 51°12.427 2°43.449 7.9 23 5.6 100420 90
2008-03-28 09:28 51°12.533 2°43.651 8.4 22 5.5 100410 90
2008-03-28 09:29 51°12.635 2°43.845 7 23 5.5 100410 90
2008-03-28 09:30 51°12.743 2°44.044 7.5 26 5.5 100400 90
2008-03-28 09:31 51°12.847 2°44.241 8.1 22 5.6 100410 90
2008-03-28 09:32 51°12.95 2°44.439 7.7 22 5.6 100410 90
2008-03-28 09:33 51°13.061 2°44.626 8.3 20 5.6 100410 90
2008-03-28 09:34 51°13.172 2°44.813 8.8 23 5.6 100400 90
2008-03-28 09:35 51°13.288 2°44.99 6.3 27 5.6 100400 90
2008-03-28 09:36 51°13.409 2°45.162 7.3 23 5.6 100400 90
2008-03-28 09:37 51°13.525 2°45.339 7.5 20 5.6 100390 90
2008-03-28 09:38 51°13.644 2°45.505 7.8 27 5.6 100390 90
2008-03-28 09:39 51°13.765 2°45.683 6.9 30 5.6 100390 89
2008-03-28 09:40 51°13.887 2°45.856 8.1 27 5.6 100390 90
2008-03-28 09:41 51°14.008 2°46.031 6.8 25 5.6 100390 90
2008-03-28 09:42 51°14.132 2°46.203 7.9 31 5.7 100380 89
2008-03-28 09:43 51°14.248 2°46.385 9.1 20 5.7 100380 90
2008-03-28 09:44 51°14.354 2°46.582 8.9 22 5.7 100380 89
2008-03-28 09:45 51°14.464 2°46.773 6.8 20 5.7 100370 90
2008-03-28 09:46 51°14.568 2°46.972 9.1 20 5.7 100380 90
2008-03-28 09:47 51°14.672 2°47.17 8.8 19 5.7 100380 90
2008-03-28 09:48 51°14.775 2°47.367 8.6 17 5.7 100380 90
2008-03-28 09:49 51°14.88 2°47.564 9 23 5.7 100380 90
2008-03-28 09:50 51°14.985 2°47.764 9.1 21 5.7 100370 90
2008-03-28 09:51 51°15.091 2°47.963 9 23 5.7 100370 90
2008-03-28 09:52 51°15.194 2°48.165 9.2 19 5.7 100370 90
2008-03-28 09:53 51°15.298 2°48.367 8.4 18 5.7 100370 90
2008-03-28 09:54 51°15.397 2°48.575 9.9 17 5.7 100370 90
2008-03-28 09:55 51°15.489 2°48.789 8.8 16 5.7 100360 90
2008-03-28 09:56 51°15.583 2°49.001 8.6 19 5.7 100350 90
2008-03-28 09:57 51°15.676 2°49.215 10.8 16 5.7 100360 90
2008-03-28 09:58 51°15.769 2°49.428 9.5 17 5.7 100350 90
2008-03-28 09:59 51°15.861 2°49.642 8.7 20 5.8 100350 90
2008-03-28 10:00 51°15.956 2°49.854 9.9 24 5.8 100360 90
2008-03-28 10:01 51°16.046 2°50.064 9.5 19 5.8 100360 90
2008-03-28 10:02 51°16.137 2°50.283 9.5 20 5.8 100350 90
2008-03-28 10:03 51°16.23 2°50.493 9.1 17 5.8 100360 90
2008-03-28 10:04 51°16.319 2°50.704 10.2 23 5.8 100350 90
2008-03-28 10:05 51°16.405 2°50.923 10 20 5.8 100340 90
2008-03-28 10:06 51°16.506 2°51.126 9.1 20 5.8 100350 90
2008-03-28 10:07 51°16.606 2°51.329 11 19 5.8 100350 90
2008-03-28 10:08 51°16.707 2°51.531 10.2 22 5.8 100340 89
2008-03-28 10:09 51°16.811 2°51.727 7.1 24 5.9 100340 90
2008-03-28 10:10 51°16.93 2°51.904 8.9 26 5.9 100350 89
2008-03-28 10:11 51°17.058 2°52.06 8.4 27 5.9 100350 89
2008-03-28 10:12 51°17.185 2°52.217 7.2 37 5.9 100350 89
2008-03-28 10:13 51°17.331 2°52.323 6.5 38 5.9 100350 89
2008-03-28 10:14 51°17.487 2°52.391 6.8 40 5.9 100350 89
2008-03-28 10:15 51°17.644 2°52.457 6.4 43 5.9 100340 88
2008-03-28 10:16 51°17.801 2°52.521 7.7 43 6 100340 88
2008-03-28 10:17 51°17.961 2°52.591 5.9 39 6 100330 88
2008-03-28 10:18 51°18.111 2°52.754 9.8 16 6 100320 88
2008-03-28 10:19 51°18.191 2°53.032 11.7 11 6 100310 88
2008-03-28 10:20 51°18.267 2°53.316 12.4 10 6 100300 88
2008-03-28 10:21 51°18.354 2°53.589 10.9 18 6.1 100300 87
2008-03-28 10:22 51°18.438 2°53.866 9.7 11 6.1 100300 86
2008-03-28 10:23 51°18.529 2°54.139 13.5 10 6.1 100300 86
2008-03-28 10:24 51°18.602 2°54.425 12.2 14 6.1 100300 87
2008-03-28 10:25 51°18.674 2°54.71 10.8 14 6.1 100300 87
2008-03-28 10:26 51°18.747 2°54.996 10.4 6 6.1 100300 87
2008-03-28 10:27 51°18.819 2°55.28 12.3 10 6.1 100300 87
2008-03-28 10:28 51°18.892 2°55.559 12.2 10 6.1 100290 87
2008-03-28 10:29 51°18.96 2°55.844 11.3 15 6.1 100290 87
2008-03-28 10:30 51°19.03 2°56.127 12.7 15 6.1 100300 87
2008-03-28 10:31 51°19.108 2°56.403 9.4 14 6.1 100300 86
2008-03-28 10:32 51°19.179 2°56.683 12.9 13 6.1 100290 86
2008-03-28 10:33 51°19.251 2°56.961 14.4 11 6.1 100300 86
2008-03-28 10:34 51°19.325 2°57.238 13 14 6.1 100290 86
2008-03-28 10:35 51°19.391 2°57.521 11.6 9 6.2 100290 86
2008-03-28 10:36 51°19.457 2°57.799 12.6 10 6.1 100290 86
2008-03-28 10:37 51°19.532 2°58.071 10.2 8 6.2 100290 85
2008-03-28 10:38 51°19.605 2°58.345 9.5 9 6.2 100290 86
2008-03-28 10:39 51°19.67 2°58.624 11.8 11 6.2 100290 85
2008-03-28 10:40 51°19.736 2°58.902 11.9 11 6.2 100280 86
2008-03-28 10:41 51°19.809 2°59.176 12.2 12 6.2 100280 85
2008-03-28 10:42 51°19.882 2°59.451 12 9 6.2 100290 86
2008-03-28 10:43 51°19.955 2°59.727 10.3 11 6.2 100290 86
2008-03-28 10:44 51°20.025 3°0.002 12.1 12 6.2 100290 86
2008-03-28 10:45 51°20.105 3°0.27 11.7 10 6.2 100290 86
2008-03-28 10:46 51°20.179 3°0.541 14.4 11 6.2 100280 87
2008-03-28 10:47 51°20.252 3°0.811 13 9 6.2 100280 87
2008-03-28 10:48 51°20.318 3°1.087 13.6 14 6.2 100270 86
2008-03-28 10:49 51°20.41 3°1.348 10.8 14 6.2 100280 86
2008-03-28 10:50 51°20.514 3°1.597 10.3 17 6.2 100280 87
2008-03-28 10:51 51°20.613 3°1.854 11.3 18 6.2 100270 86
2008-03-28 10:52 51°20.712 3°2.11 12 13 6.2 100270 87
2008-03-28 10:53 51°20.81 3°2.368 11.1 15 6.2 100270 86
2008-03-28 10:54 51°20.905 3°2.632 11.6 13 6.2 100270 86
2008-03-28 10:55 51°21.005 3°2.893 11.1 13 6.3 100270 85
2008-03-28 10:56 51°21.094 3°3.161 12.9 17 6.3 100260 85
2008-03-28 10:57 51°21.178 3°3.436 10.4 9 6.3 100270 85
2008-03-28 10:58 51°21.241 3°3.726 13.3 11 6.3 100270 85
2008-03-28 10:59 51°21.301 3°4.016 13.5 7 6.3 100260 84
2008-03-28 11:00 51°21.363 3°4.302 14.2 15 6.4 100260 84
2008-03-28 11:01 51°21.428 3°4.586 15.4 19 6.4 100250 84
2008-03-28 11:02 51°21.489 3°4.868 12.4 14 6.4 100250 84
2008-03-28 11:03 51°21.552 3°5.148 14.8 9 6.5 100260 83
2008-03-28 11:04 51°21.617 3°5.428 13.6 10 6.5 100250 84
2008-03-28 11:05 51°21.687 3°5.708 11.9 8 6.5 100260 84
2008-03-28 11:06 51°21.75 3°5.993 14 11 6.5 100250 83
2008-03-28 11:07 51°21.813 3°6.278 12.2 6 6.5 100250 83
2008-03-28 11:08 51°21.88 3°6.564 13.5 9 6.5 100250 83
2008-03-28 11:09 51°21.949 3°6.852 13.7 17 6.5 100230 82
2008-03-28 11:10 51°22.017 3°7.141 15 9 6.6 100260 82
2008-03-28 11:11 51°22.085 3°7.426 11.7 11 6.6 100240 82
2008-03-28 11:12 51°22.155 3°7.709 13.1 8 6.6 100240 81
2008-03-28 11:13 51°22.22 3°7.995 13 21 6.6 100240 81
2008-03-28 11:14 51°22.25 3°8.297 11.1 7 6.6 100220 81
2008-03-28 11:15 51°22.263 3°8.605 13.4 6 6.6 100220 81
2008-03-28 11:16 51°22.277 3°8.914 11.2 6 6.6 100210 81
2008-03-28 11:17 51°22.294 3°9.219 12.3 7 6.6 100200 81
2008-03-28 11:18 51°22.313 3°9.522 14.1 6 6.6 100210 82
2008-03-28 11:19 51°22.331 3°9.828 13 6 6.6 100220 82
2008-03-28 11:20 51°22.349 3°10.131 11.8 1 6.6 100220 83
2008-03-28 11:21 51°22.368 3°10.433 11 2 6.6 100220 82
2008-03-28 11:22 51°22.392 3°10.704 11.8 8 6.7 100210 81
2008-03-28 11:23 51°22.406 3°10.879 9.2 8 6.7 100240 80
2008-03-28 11:24 51°22.42 3°11.009 14.4 11 6.8 100240 80
2008-03-28 11:25 51°22.419 3°11.164 9.3 6 6.8 100230 80
2008-03-28 11:26 51°22.416 3°11.35 13.4 2 6.8 100220 79
2008-03-28 11:27 51°22.412 3°11.543 12.7 6 6.9 100210 79
2008-03-28 11:28 51°22.446 3°11.674 11.8 36 6.8 100230 79
2008-03-28 11:29 51°22.516 3°11.631 9.4 264 7 100250 80
2008-03-28 11:30 51°22.539 3°11.509 19 255 7 100190 78
2008-03-28 11:31 51°22.528 3°11.421 18.7 36 7 100200 76
2008-03-28 11:32 51°22.515 3°11.362 11.9 32 7.1 100210 77
2008-03-28 11:33 51°22.515 3°11.322 15.3 234 7.1 100200 77
2008-03-28 11:34 51°22.526 3°11.29 15.3 254 7.1 100200 76
2008-03-28 11:35 51°22.54 3°11.266 12.7 260 7.1 100250 77
2008-03-28 11:36 51°22.553 3°11.247 8.3 264 7.2 100220 77
2008-03-28 11:37 51°22.568 3°11.229 8.7 269 7.1 100240 77
2008-03-28 11:38 51°22.581 3°11.211 7.1 266 7.1 100230 78
2008-03-28 11:39 51°22.593 3°11.192 8.9 267 7.1 100250 79
2008-03-28 11:40 51°22.601 3°11.147 15 251 7.1 100230 79
2008-03-28 11:41 51°22.581 3°11.038 14.3 240 7.1 100180 78
2008-03-28 11:42 51°22.537 3°10.864 11.7 32 7.2 100170 77
2008-03-28 11:43 51°22.476 3°10.642 13.5 237 7.2 100170 76
2008-03-28 11:44 51°22.425 3°10.401 21.9 242 7.3 100140 75
2008-03-28 11:45 51°22.379 3°10.152 13.9 241 7.3 100160 75
2008-03-28 11:46 51°22.337 3°9.89 16.9 247 7.4 100160 75
2008-03-28 11:47 51°22.294 3°9.626 13.6 245 7.4 100140 75
2008-03-28 11:48 51°22.249 3°9.366 14.9 26 7.4 100130 76
2008-03-28 11:49 51°22.205 3°9.1 15.2 247 7.4 100130 76
2008-03-28 11:50 51°22.16 3°8.832 19.6 23 7.4 100120 76
2008-03-28 11:51 51°22.115 3°8.562 14.8 243 7.4 100130 76
2008-03-28 11:52 51°22.071 3°8.293 20.2 26 7.5 100100 75
2008-03-28 11:53 51°22.028 3°8.023 13 242 7.5 100120 75
2008-03-28 11:54 51°21.983 3°7.754 13.7 243 7.5 100120 75
2008-03-28 11:55 51°21.938 3°7.483 13.4 244 7.5 100120 75
2008-03-28 11:56 51°21.893 3°7.212 14.7 240 7.5 100110 75
2008-03-28 11:57 51°21.847 3°6.945 13.8 238 7.5 100080 75
2008-03-28 11:58 51°21.796 3°6.679 17.8 241 7.5 100090 75
2008-03-28 11:59 51°21.746 3°6.415 20.8 244 7.5 100070 74
2008-03-28 12:00 51°21.696 3°6.151 18.8 242 7.6 100080 74
2008-03-28 12:01 51°21.644 3°5.887 19.1 241 7.6 100090 75
2008-03-28 12:02 51°21.592 3°5.621 20.2 239 7.6 100070 75
2008-03-28 12:03 51°21.539 3°5.356 21.2 244 7.6 100080 76
2008-03-28 12:04 51°21.486 3°5.09 19.7 240 7.6 100070 76
2008-03-28 12:05 51°21.433 3°4.827 14.3 239 7.6 100070 75
2008-03-28 12:06 51°21.374 3°4.562 14.1 237 7.7 100070 75
2008-03-28 12:07 51°21.305 3°4.26 22.8 242 7.7 100050 75
2008-03-28 12:08 51°21.226 3°3.939 15.4 237 7.7 100050 74
2008-03-28 12:09 51°21.148 3°3.617 16.2 237 7.8 100060 75
2008-03-28 12:10 51°21.071 3°3.296 20.8 243 7.7 100040 74
2008-03-28 12:11 51°20.99 3°2.978 18.6 237 7.8 100030 74
2008-03-28 12:12 51°20.904 3°2.665 19.6 32 7.8 100040 74
2008-03-28 12:13 51°20.821 3°2.354 20.4 34 7.9 100030 74
2008-03-28 12:14 51°20.74 3°2.043 20.4 238 7.9 100010 73
2008-03-28 12:15 51°20.661 3°1.729 23 239 7.9 100000 73
2008-03-28 12:16 51°20.582 3°1.416 19.3 241 7.9 100020 73
2008-03-28 12:17 51°20.501 3°1.102 18.9 241 7.9 100010 74
2008-03-28 12:18 51°20.422 3°0.786 23 31 7.9 100000 74
2008-03-28 12:19 51°20.342 3°0.472 23.2 35 7.9 100010 74
2008-03-28 12:20 51°20.261 3°0.158 16.3 234 7.9 100000 74
2008-03-28 12:21 51°20.181 2°59.844 19.9 239 7.9 99990 74
2008-03-28 12:22 51°20.102 2°59.528 22.9 33 8 99980 72
2008-03-28 12:23 51°20.022 2°59.211 22.2 35 8 99980 72
2008-03-28 12:24 51°19.942 2°58.894 21.2 236 8.1 99980 71
2008-03-28 12:25 51°19.862 2°58.578 24.6 237 8.1 99950 71
2008-03-28 12:26 51°19.783 2°58.265 22.9 32 8.1 99950 71
2008-03-28 12:27 51°19.704 2°57.952 20.3 35 8.1 99950 71
2008-03-28 12:28 51°19.624 2°57.64 24.4 242 8.1 99940 71
2008-03-28 12:29 51°19.544 2°57.327 21.2 238 8.1 99960 71
2008-03-28 12:30 51°19.464 2°57.014 24.7 236 8.1 99960 72
2008-03-28 12:31 51°19.384 2°56.706 19.1 33 8.1 99950 71
2008-03-28 12:32 51°19.303 2°56.396 23 235 8.1 99960 72
2008-03-28 12:33 51°19.22 2°56.085 22.5 35 8.1 99960 72
2008-03-28 12:34 51°19.14 2°55.773 18.5 238 8.1 99940 72
2008-03-28 12:35 51°19.059 2°55.464 17.8 235 8.1 99920 72
2008-03-28 12:36 51°18.979 2°55.155 22.4 34 8.1 99920 72
2008-03-28 12:37 51°18.9 2°54.848 25 238 8.2 99910 71
2008-03-28 12:38 51°18.821 2°54.54 23.4 236 8.2 99920 71
2008-03-28 12:39 51°18.741 2°54.231 22.1 237 8.1 99920 71
2008-03-28 12:40 51°18.661 2°53.922 20 33 8.1 99920 72
2008-03-28 12:41 51°18.582 2°53.614 23.5 33 8.1 99900 72
2008-03-28 12:42 51°18.504 2°53.308 18.2 239 8.1 99900 72
2008-03-28 12:43 51°18.413 2°53.01 22.8 35 8.1 99940 73
2008-03-28 12:44 51°18.284 2°52.756 20.5 316 8 99900 74
2008-03-28 12:45 51°18.118 2°52.569 20.8 320 8 99910 74
2008-03-28 12:46 51°17.932 2°52.452 22.8 325 8 99940 75
2008-03-28 12:47 51°17.733 2°52.397 22.9 326 7.9 99950 76
2008-03-28 12:48 51°17.533 2°52.359 24.7 329 7.8 99950 76
2008-03-28 12:49 51°17.334 2°52.337 24.1 330 7.8 99940 75
2008-03-28 12:50 51°17.136 2°52.346 23.3 335 7.9 99940 74
2008-03-28 12:51 51°16.942 2°52.418 22.8 332 7.9 99910 75
2008-03-28 12:52 51°16.757 2°52.534 21.1 337 7.9 99920 75
2008-03-28 12:53 51°16.577 2°52.676 26.1 338 7.9 99930 76
2008-03-28 12:54 51°16.398 2°52.821 21.5 339 7.7 99890 80
2008-03-28 12:55 51°16.225 2°52.963 22.2 339 7 99920 88
2008-03-28 12:56 51°16.043 2°53.1 23.9 339 6.7 99920 92
2008-03-28 12:57 51°15.87 2°53.234 23.9 340 6.6 99900 93
2008-03-28 12:58 51°15.689 2°53.371 20.5 339 6.8 99910 93
2008-03-28 12:59 51°15.51 2°53.507 22.3 336 6.9 99920 91
2008-03-28 13:00 51°15.338 2°53.645 17.7 337 7.2 99920 87
2008-03-28 13:01 51°15.164 2°53.795 19 341 7.3 99920 83
2008-03-28 13:02 51°15.003 2°53.978 19.9 340 7.4 99900 81
2008-03-28 13:03 51°14.842 2°54.161 18 339 7.6 99930 79
2008-03-28 13:04 51°14.692 2°54.361 17.6 346 7.6 99900 77
2008-03-28 13:05 51°14.573 2°54.613 18.6 344 7.8 99880 75
2008-03-28 13:06 51°14.457 2°54.875 15.2 340 7.8 99910 75
2008-03-28 13:07 51°14.333 2°55.131 10.9 338 7.9 99920 74
2008-03-28 13:08 51°14.196 2°55.347 18.1 338 8 99930 74
2008-03-28 13:09 51°14.059 2°55.469 14.8 336 8.1 99950 73
2008-03-28 13:10 51°13.929 2°55.565 11.3 330 8.1 99920 73
2008-03-28 13:11 51°13.821 2°55.642 14.4 335 8.2 99930 72
2008-03-28 13:12 51°13.751 2°55.719 16.3 347 8.2 99920 72
2008-03-28 13:13 51°13.704 2°55.816 8.4 344 8.3 99950 71
2008-03-28 13:14 51°13.674 2°55.912 11.1 2 8.3 99940 71